createdAt,value
2018-12-30T00:02:07.978Z,21.00
2018-12-30T00:04:55.549Z,17.10
2018-12-30T00:07:24.454Z,15.40
2018-12-30T00:10:11.915Z,16.00
2018-12-30T00:12:40.151Z,16.37
2018-12-30T00:15:27.932Z,16.50
2018-12-30T00:26:57.758Z,15.37
2018-12-30T00:29:25.901Z,16.17
2018-12-30T00:32:13.391Z,18.10
2018-12-30T00:34:41.824Z,15.17
2018-12-30T00:37:09.958Z,15.47
2018-12-30T00:51:34.090Z,12.57
2018-12-30T00:54:21.834Z,12.10
2018-12-30T01:11:50.810Z,9.00
2018-12-30T01:14:38.300Z,10.23
2018-12-30T01:20:05.610Z,9.40
2018-12-30T01:22:53.091Z,9.70
2018-12-30T01:34:20.186Z,9.63
2018-12-30T01:37:07.723Z,11.73
2018-12-30T01:45:27.434Z,10.97
2018-12-30T01:48:14.940Z,11.40
2018-12-30T01:53:55.341Z,7.47
2018-12-30T01:56:42.902Z,7.33
2018-12-30T02:08:09.871Z,7.23
2018-12-30T02:10:57.401Z,6.67
2018-12-30T02:37:14.346Z,6.20
2018-12-30T02:40:01.841Z,6.00
2018-12-30T02:51:25.083Z,5.77
2018-12-30T02:54:12.609Z,6.40
2018-12-30T02:59:39.794Z,5.00
2018-12-30T03:02:27.275Z,6.73
2018-12-30T03:10:55.574Z,4.37
2018-12-30T03:13:23.712Z,5.00
2018-12-30T03:16:11.189Z,4.33
2018-12-30T03:18:58.666Z,5.10
2018-12-30T03:24:25.440Z,3.60
2018-12-30T03:26:53.623Z,4.10
2018-12-30T03:29:41.125Z,4.70
2018-12-30T03:32:28.587Z,4.07
2018-12-30T03:46:55.964Z,4.50
2018-12-30T03:49:43.443Z,4.27
2018-12-30T03:52:11.611Z,4.20
2018-12-30T03:54:59.091Z,4.80
2018-12-30T03:57:46.582Z,5.50
2018-12-30T04:12:22.443Z,5.00
2018-12-30T04:14:50.566Z,4.93
2018-12-30T04:17:38.058Z,5.43
2018-12-30T04:20:06.205Z,4.83
2018-12-30T04:22:53.726Z,4.97
2018-12-30T04:25:21.871Z,4.60
2018-12-30T04:28:09.381Z,4.10
2018-12-30T04:30:56.902Z,4.20
2018-12-30T04:51:22.816Z,4.10
2018-12-30T04:54:24.304Z,4.00
2018-12-30T04:59:41.982Z,3.80
2018-12-30T05:02:29.463Z,3.37
2018-12-30T05:13:59.397Z,3.17
2018-12-30T05:16:46.890Z,2.80
2018-12-30T05:46:13.691Z,2.97
2018-12-30T05:49:01.173Z,2.83
2018-12-30T06:18:33.870Z,5.47
2018-12-30T06:21:02.006Z,4.93
2018-12-30T06:23:49.614Z,5.70
2018-12-30T06:26:37.094Z,7.30
2018-12-30T06:55:59.247Z,6.30
2018-12-30T06:58:46.772Z,6.53
2018-12-30T07:07:13.093Z,6.17
2018-12-30T07:10:00.592Z,6.67
2018-12-30T07:48:32.419Z,7.80
2018-12-30T07:51:19.949Z,9.43
2018-12-30T07:53:48.356Z,8.03
2018-12-30T07:56:35.846Z,8.50
2018-12-30T08:02:05.690Z,7.03
2018-12-30T08:04:53.246Z,6.23
2018-12-30T08:16:20.426Z,7.93
2018-12-30T08:19:07.899Z,7.37
2018-12-30T08:24:35.069Z,6.93
2018-12-30T08:27:22.540Z,6.80
2018-12-30T08:35:51.057Z,5.73
2018-12-30T08:38:19.206Z,7.97
2018-12-30T08:41:06.715Z,6.57
2018-12-30T08:43:54.195Z,5.10
2018-12-30T08:55:21.168Z,7.17
2018-12-30T08:58:08.674Z,5.83
2018-12-30T09:03:35.740Z,5.17
2018-12-30T09:06:23.211Z,5.93
2018-12-30T09:14:51.406Z,9.03
2018-12-30T09:17:19.543Z,5.87
2018-12-30T09:20:07.090Z,5.83
2018-12-30T09:22:35.226Z,4.83
2018-12-30T09:25:22.715Z,7.83
2018-12-30T09:27:50.857Z,7.60
2018-12-30T09:30:19.031Z,6.50
2018-12-30T09:33:06.543Z,5.90
2018-12-30T09:35:54.187Z,7.40
2018-12-30T09:38:23.282Z,5.63
2018-12-30T09:40:51.430Z,5.60
2018-12-30T09:43:38.918Z,5.70
2018-12-30T09:46:26.424Z,7.77
2018-12-30T10:00:58.331Z,6.63
2018-12-30T10:03:26.480Z,5.07
2018-12-30T10:06:14.136Z,6.43
2018-12-30T10:08:42.257Z,6.80
2018-12-30T10:11:29.762Z,5.43
2018-12-30T10:20:10.040Z,6.30
2018-12-30T10:22:38.176Z,6.47
2018-12-30T10:25:25.733Z,5.70
2018-12-30T10:27:53.999Z,6.17
2018-12-30T10:30:22.155Z,6.57
2018-12-30T10:33:09.638Z,6.70
2018-12-30T10:35:37.926Z,5.93
2018-12-30T10:38:25.558Z,7.70
2018-12-30T10:40:53.780Z,4.67
2018-12-30T10:46:14.614Z,6.37
2018-12-30T10:48:52.580Z,5.57
2018-12-30T11:09:18.618Z,5.63
2018-12-30T11:11:46.756Z,6.17
2018-12-30T11:14:34.255Z,4.90
2018-12-30T11:17:21.744Z,5.37
2018-12-30T11:19:50.182Z,5.10
2018-12-30T11:22:37.700Z,5.50
2018-12-30T11:34:08.031Z,4.53
2018-12-30T11:36:36.178Z,6.97
2018-12-30T11:39:23.974Z,4.00
2018-12-30T11:41:52.113Z,5.17
2018-12-30T11:44:20.285Z,5.33
2018-12-30T11:47:07.977Z,5.73
2018-12-30T11:49:36.110Z,4.67
2018-12-30T11:52:23.622Z,3.33
2018-12-30T11:55:11.090Z,7.37
2018-12-30T12:21:42.474Z,5.33
2018-12-30T12:24:10.613Z,4.93
2018-12-30T12:26:38.774Z,7.07
2018-12-30T12:29:27.271Z,5.20
2018-12-30T12:31:55.426Z,6.77
2018-12-30T12:34:43.037Z,5.77
2018-12-30T12:37:11.398Z,6.93
2018-12-30T12:39:58.943Z,5.90
2018-12-30T12:42:46.423Z,6.07
2018-12-30T12:57:12.351Z,9.10
2018-12-30T12:59:59.842Z,8.07
2018-12-30T13:02:28.139Z,8.07
2018-12-30T13:05:15.632Z,5.07
2018-12-30T13:28:45.357Z,6.50
2018-12-30T13:31:32.837Z,6.10
2018-12-30T13:37:02.562Z,11.73
2018-12-30T13:39:30.726Z,7.40
2018-12-30T13:42:18.406Z,6.10
2018-12-30T13:45:05.909Z,7.20
2018-12-30T13:53:31.938Z,9.83
2018-12-30T13:56:19.491Z,10.80
2018-12-30T14:10:53.215Z,6.00
2018-12-30T14:13:40.795Z,6.97
2018-12-30T14:16:09.098Z,8.07
2018-12-30T14:18:56.583Z,9.13
2018-12-30T14:21:25.334Z,9.87
2018-12-30T14:24:12.803Z,7.90
2018-12-30T14:26:41.015Z,6.97
2018-12-30T14:29:28.491Z,9.03
2018-12-30T14:37:31.822Z,8.43
2018-12-30T14:39:59.990Z,7.63
2018-12-30T14:42:28.238Z,7.07
2018-12-30T14:45:15.815Z,9.07
2018-12-30T14:53:57.633Z,7.53
2018-12-30T14:56:45.353Z,6.13
2018-12-30T14:59:39.027Z,7.73
2018-12-30T15:05:20.382Z,9.13
2018-12-30T15:07:48.517Z,6.10
2018-12-30T15:10:36.035Z,8.70
2018-12-30T15:13:23.595Z,7.30
2018-12-30T15:18:53.430Z,9.30
2018-12-30T15:21:41.800Z,9.57
2018-12-30T15:36:09.521Z,10.07
2018-12-30T15:38:56.995Z,9.33
2018-12-30T15:41:25.155Z,10.33
2018-12-30T15:44:12.709Z,8.63
2018-12-30T16:07:44.251Z,8.10
2018-12-30T16:10:31.733Z,12.20
2018-12-30T16:13:00.154Z,11.27
2018-12-30T16:15:47.629Z,8.80
2018-12-30T16:21:17.754Z,10.47
2018-12-30T16:24:05.231Z,9.17
2018-12-30T16:26:33.376Z,10.17
2018-12-30T16:29:20.863Z,12.97
2018-12-30T16:31:49.014Z,11.77
2018-12-30T16:34:17.269Z,13.40
2018-12-30T16:37:04.797Z,10.30
2018-12-30T16:39:52.298Z,8.37
2018-12-30T16:51:14.946Z,12.90
2018-12-30T16:54:02.422Z,12.43
2018-12-30T16:56:30.812Z,11.50
2018-12-30T16:59:18.298Z,11.97
2018-12-30T17:01:46.578Z,10.73
2018-12-30T17:04:14.702Z,12.03
2018-12-30T17:07:02.288Z,9.33
2018-12-30T17:09:30.421Z,11.93
2018-12-30T17:12:17.966Z,15.43
2018-12-30T17:17:58.414Z,12.00
2018-12-30T17:20:26.555Z,9.77
2018-12-30T17:23:14.350Z,14.30
2018-12-30T17:26:01.842Z,12.07
2018-12-30T17:28:30.226Z,12.57
2018-12-30T17:30:58.374Z,16.40
2018-12-30T17:33:26.506Z,11.73
2018-12-30T17:35:54.964Z,11.60
2018-12-30T17:38:42.533Z,14.07
2018-12-30T17:44:12.466Z,13.07
2018-12-30T17:46:40.619Z,10.60
2018-12-30T17:49:28.107Z,12.10
2018-12-30T17:52:15.587Z,9.87
2018-12-30T17:54:43.740Z,11.87
2018-12-30T17:57:31.229Z,11.77
2018-12-30T17:59:59.978Z,13.20
2018-12-30T18:02:47.601Z,13.20
2018-12-30T18:05:17.487Z,14.60
2018-12-30T18:08:04.977Z,12.57
2018-12-30T18:13:26.299Z,13.53
2018-12-30T18:15:54.471Z,12.77
2018-12-30T18:18:22.624Z,14.73
2018-12-30T18:20:50.754Z,14.90
2018-12-30T18:23:19.088Z,17.43
2018-12-30T18:25:47.226Z,17.90
2018-12-30T18:28:15.379Z,16.60
2018-12-30T18:30:43.714Z,18.97
2018-12-30T18:33:11.876Z,15.63
2018-12-30T18:35:40.090Z,18.47
2018-12-30T18:38:08.398Z,18.67
2018-12-30T18:40:36.550Z,14.80
2018-12-30T18:43:04.702Z,17.80
2018-12-30T18:45:32.917Z,15.93
2018-12-30T18:48:01.054Z,17.77
2018-12-30T18:50:29.194Z,19.40
2018-12-30T18:52:57.504Z,21.17
2018-12-30T18:55:25.630Z,18.20
2018-12-30T18:57:53.772Z,15.43
2018-12-30T19:00:22.141Z,18.17
2018-12-30T19:02:50.266Z,16.97
2018-12-30T19:05:18.422Z,17.57
2018-12-30T19:07:46.689Z,18.00
2018-12-30T19:10:14.834Z,18.97
2018-12-30T19:12:43.022Z,19.17
2018-12-30T19:15:11.181Z,17.47
2018-12-30T19:17:39.336Z,19.80
2018-12-30T19:20:07.470Z,19.60
2018-12-30T19:22:35.868Z,18.37
2018-12-30T19:25:04.282Z,20.53
2018-12-30T19:27:32.397Z,19.10
2018-12-30T19:30:00.818Z,22.17
2018-12-30T19:32:28.942Z,24.10
2018-12-30T19:34:57.082Z,17.00
2018-12-30T19:37:25.521Z,17.93
2018-12-30T19:39:53.653Z,17.20
2018-12-30T19:42:21.790Z,21.93
2018-12-30T19:44:49.978Z,20.97
2018-12-30T19:47:18.097Z,17.87
2018-12-30T19:49:46.207Z,18.93
2018-12-30T19:52:14.350Z,16.63
2018-12-30T19:54:42.479Z,19.70
2018-12-30T19:57:10.594Z,16.50
2018-12-30T19:59:39.203Z,18.53
2018-12-30T20:02:07.323Z,19.57
2018-12-30T20:04:40.581Z,18.43
2018-12-30T20:07:05.461Z,18.40
2018-12-30T20:09:33.601Z,18.77
2018-12-30T20:12:01.743Z,18.20
2018-12-30T20:14:29.938Z,19.00
2018-12-30T20:16:58.213Z,21.17
2018-12-30T20:19:26.346Z,17.20
2018-12-30T20:21:54.604Z,19.03
2018-12-30T20:24:22.730Z,18.00
2018-12-30T20:26:50.867Z,16.57
2018-12-30T20:29:19.270Z,21.87
2018-12-30T20:31:47.422Z,17.13
2018-12-30T20:34:15.530Z,20.60
2018-12-30T20:36:43.771Z,20.47
2018-12-30T20:39:11.888Z,17.00
2018-12-30T20:41:40.023Z,20.57
2018-12-30T20:44:08.186Z,16.83
2018-12-30T20:46:36.335Z,18.40
2018-12-30T20:49:04.446Z,19.13
2018-12-30T20:51:32.600Z,19.20
2018-12-30T20:54:00.753Z,18.33
2018-12-30T20:56:28.896Z,18.45
2018-12-30T20:58:57.163Z,19.60
2018-12-30T21:01:25.314Z,20.37
2018-12-30T21:03:53.474Z,26.43
2018-12-30T21:06:21.897Z,22.60
2018-12-30T21:08:50.043Z,18.23
2018-12-30T21:11:18.202Z,21.33
2018-12-30T21:13:46.410Z,18.13
2018-12-30T21:16:15.026Z,18.33
2018-12-30T21:18:43.157Z,24.47
2018-12-30T21:21:11.307Z,26.27
2018-12-30T21:23:39.585Z,18.53
2018-12-30T21:26:07.718Z,26.10
2018-12-30T21:28:35.872Z,19.10
2018-12-30T21:31:04.037Z,17.80
2018-12-30T21:33:32.196Z,24.23
2018-12-30T21:36:00.888Z,16.73
2018-12-30T21:38:30.838Z,17.67
2018-12-30T21:40:58.946Z,20.60
2018-12-30T21:43:27.087Z,22.83
2018-12-30T21:45:55.485Z,18.93
2018-12-30T21:48:23.594Z,22.10
2018-12-30T21:50:51.719Z,28.17
2018-12-30T21:53:19.857Z,20.93
2018-12-30T21:55:47.985Z,20.67
2018-12-30T21:58:16.124Z,23.07
2018-12-30T22:00:44.474Z,26.43
2018-12-30T22:03:12.596Z,20.43
2018-12-30T22:05:40.719Z,22.17
2018-12-30T22:08:08.894Z,25.87
2018-12-30T22:10:37.037Z,19.40
2018-12-30T22:13:05.134Z,25.13
2018-12-30T22:15:33.394Z,25.53
2018-12-30T22:18:01.543Z,26.37
2018-12-30T22:20:29.729Z,26.13
2018-12-30T22:22:57.983Z,22.90
2018-12-30T22:25:26.096Z,24.47
2018-12-30T22:27:54.214Z,26.30
2018-12-30T22:30:22.507Z,23.37
2018-12-30T22:32:50.610Z,23.37
2018-12-30T22:35:18.740Z,25.87
2018-12-30T22:37:46.992Z,21.10
2018-12-30T22:40:15.180Z,28.20
2018-12-30T22:42:43.294Z,22.67
2018-12-30T22:45:11.442Z,20.87
2018-12-30T22:47:39.553Z,25.43
2018-12-30T22:50:07.662Z,21.53
2018-12-30T22:52:35.888Z,24.13
2018-12-30T22:55:04.563Z,21.23
2018-12-30T22:57:32.674Z,22.63
2018-12-30T23:00:00.818Z,20.93
2018-12-30T23:02:28.928Z,22.63
2018-12-30T23:04:57.130Z,25.80
2018-12-30T23:07:25.338Z,21.87
2018-12-30T23:09:53.448Z,24.63
2018-12-30T23:12:21.623Z,20.37
2018-12-30T23:14:49.771Z,22.73
2018-12-30T23:17:17.924Z,24.23
2018-12-30T23:19:46.169Z,23.37
2018-12-30T23:22:14.321Z,22.70
2018-12-30T23:24:42.430Z,20.37
2018-12-30T23:27:10.523Z,22.43
2018-12-30T23:29:38.763Z,21.50
2018-12-30T23:32:06.849Z,19.80
2018-12-30T23:34:34.963Z,18.43
2018-12-30T23:37:03.364Z,20.33
2018-12-30T23:39:31.472Z,16.40
2018-12-30T23:41:59.574Z,15.13
2018-12-30T23:44:27.714Z,16.03
2018-12-30T23:46:55.813Z,18.17
2018-12-30T23:49:23.922Z,22.13
2018-12-30T23:51:52.106Z,17.73
2018-12-30T23:54:20.219Z,20.47
2018-12-30T23:56:48.333Z,14.90
2018-12-30T23:59:16.477Z,14.40
